Wetterdaten für den Flughafen Lübeck Blankensee


ADDS - METARS form results Aviation Digital Data Service (ADDS) Output produced by METARs form (1736 UTC 27 June 2022)
found at http://www.aviationweather.gov/metar/data/
 
EDHL 271720Z 29008KT 260V320 9999 FEW010 OVC014 20/17 Q1015
TAF EDHL 271700Z 2718/2721 27007KT 9999 SCT020 TEMPO 2718/2721 BKN008 PROB30 TEMPO 2718/2721 3000 SHRA BKN004 BKN015CB

Nord: Hamburg, Lübeck
Ost: Schwerin, Rostock
Süd: Hannover
West: Bremen, Nordhloz

 

Copyright © 2016 Flugschule Hohensee